sensor_id;sensor_type;location;lat;lon;timestamp;temperature;humidity
29207;DHT22;16247;50.840;4.382;2023-03-09T00:02:14;6.30;99.90
29207;DHT22;16247;50.840;4.382;2023-03-09T00:04:53;6.30;99.90
29207;DHT22;16247;50.840;4.382;2023-03-09T00:07:25;6.20;99.90
29207;DHT22;16247;50.840;4.382;2023-03-09T00:10:17;6.20;99.90
29207;DHT22;16247;50.840;4.382;2023-03-09T00:12:50;6.20;99.90
29207;DHT22;16247;50.840;4.382;2023-03-09T00:15:42;6.30;99.90
29207;DHT22;16247;50.840;4.382;2023-03-09T00:18:38;6.30;99.90
29207;DHT22;16247;50.840;4.382;2023-03-09T00:21:13;6.50;99.90
29207;DHT22;16247;50.840;4.382;2023-03-09T00:24:45;6.30;99.90
29207;DHT22;16247;50.840;4.382;2023-03-09T00:27:19;6.10;99.90
29207;DHT22;16247;50.840;4.382;2023-03-09T00:30:20;6.00;99.90
29207;DHT22;16247;50.840;4.382;2023-03-09T00:32:54;6.10;99.90
29207;DHT22;16247;50.840;4.382;2023-03-09T00:35:36;6.00;99.90
29207;DHT22;16247;50.840;4.382;2023-03-09T00:38:35;6.20;99.90
29207;DHT22;16247;50.840;4.382;2023-03-09T00:53:04;6.20;99.90
29207;DHT22;16247;50.840;4.382;2023-03-09T01:00:57;5.70;99.90
29207;DHT22;16247;50.840;4.382;2023-03-09T01:03:32;5.90;99.90
29207;DHT22;16247;50.840;4.382;2023-03-09T01:06:07;5.60;99.90
29207;DHT22;16247;50.840;4.382;2023-03-09T01:08:37;5.60;99.90
29207;DHT22;16247;50.840;4.382;2023-03-09T01:11:25;5.60;99.90
29207;DHT22;16247;50.840;4.382;2023-03-09T01:13:56;5.50;99.90
29207;DHT22;16247;50.840;4.382;2023-03-09T01:19:12;5.50;99.90
29207;DHT22;16247;50.840;4.382;2023-03-09T01:22:14;5.50;99.90
29207;DHT22;16247;50.840;4.382;2023-03-09T01:31:24;5.90;99.90
29207;DHT22;16247;50.840;4.382;2023-03-09T01:40:28;5.70;99.90
29207;DHT22;16247;50.840;4.382;2023-03-09T01:49:47;6.00;99.90
29207;DHT22;16247;50.840;4.382;2023-03-09T01:55:11;5.90;99.90
29207;DHT22;16247;50.840;4.382;2023-03-09T01:58:08;6.00;99.90
29207;DHT22;16247;50.840;4.382;2023-03-09T02:00:35;6.00;99.90
29207;DHT22;16247;50.840;4.382;2023-03-09T02:03:08;6.20;99.90
29207;DHT22;16247;50.840;4.382;2023-03-09T02:06:14;6.30;99.90
29207;DHT22;16247;50.840;4.382;2023-03-09T02:08:32;6.20;99.90
29207;DHT22;16247;50.840;4.382;2023-03-09T02:11:08;6.20;99.90
29207;DHT22;16247;50.840;4.382;2023-03-09T02:13:38;6.20;99.90
29207;DHT22;16247;50.840;4.382;2023-03-09T02:16:13;6.10;99.90
29207;DHT22;16247;50.840;4.382;2023-03-09T02:18:45;5.90;99.90
29207;DHT22;16247;50.840;4.382;2023-03-09T02:21:47;6.10;99.90
29207;DHT22;16247;50.840;4.382;2023-03-09T02:27:42;6.10;99.90
29207;DHT22;16247;50.840;4.382;2023-03-09T02:30:41;6.10;99.90
29207;DHT22;16247;50.840;4.382;2023-03-09T02:33:37;6.00;99.90
29207;DHT22;16247;50.840;4.382;2023-03-09T02:36:23;5.90;99.90
29207;DHT22;16247;50.840;4.382;2023-03-09T02:39:21;6.00;99.90
29207;DHT22;16247;50.840;4.382;2023-03-09T02:42:21;6.20;99.90
29207;DHT22;16247;50.840;4.382;2023-03-09T02:55:40;6.00;99.90
29207;DHT22;16247;50.840;4.382;2023-03-09T02:59:12;6.10;99.90
29207;DHT22;16247;50.840;4.382;2023-03-09T03:05:29;6.00;99.90
29207;DHT22;16247;50.840;4.382;2023-03-09T03:08:46;6.10;99.90
29207;DHT22;16247;50.840;4.382;2023-03-09T03:11:37;6.00;99.90
29207;DHT22;16247;50.840;4.382;2023-03-09T03:14:32;6.00;99.90
29207;DHT22;16247;50.840;4.382;2023-03-09T03:20:43;6.00;99.90
29207;DHT22;16247;50.840;4.382;2023-03-09T03:23:47;6.00;99.90
29207;DHT22;16247;50.840;4.382;2023-03-09T03:26:39;6.30;99.90
29207;DHT22;16247;50.840;4.382;2023-03-09T03:29:27;5.90;99.90
29207;DHT22;16247;50.840;4.382;2023-03-09T03:31:56;6.10;99.90
29207;DHT22;16247;50.840;4.382;2023-03-09T03:38:21;6.10;99.90
29207;DHT22;16247;50.840;4.382;2023-03-09T03:41:27;6.10;99.90
29207;DHT22;16247;50.840;4.382;2023-03-09T03:43:52;6.30;99.90
29207;DHT22;16247;50.840;4.382;2023-03-09T03:47:02;6.40;99.90
29207;DHT22;16247;50.840;4.382;2023-03-09T03:49:48;6.20;99.90
29207;DHT22;16247;50.840;4.382;2023-03-09T03:55:10;6.00;99.90
29207;DHT22;16247;50.840;4.382;2023-03-09T04:06:07;5.70;99.90
29207;DHT22;16247;50.840;4.382;2023-03-09T04:08:33;6.00;99.90
29207;DHT22;16247;50.840;4.382;2023-03-09T04:11:21;5.80;99.90
29207;DHT22;16247;50.840;4.382;2023-03-09T04:14:27;5.80;99.90
29207;DHT22;16247;50.840;4.382;2023-03-09T04:17:11;5.90;99.90
29207;DHT22;16247;50.840;4.382;2023-03-09T04:19:58;6.20;99.90
29207;DHT22;16247;50.840;4.382;2023-03-09T04:22:49;6.10;99.90
29207;DHT22;16247;50.840;4.382;2023-03-09T04:25:52;6.10;99.90
29207;DHT22;16247;50.840;4.382;2023-03-09T04:28:36;6.20;99.90
29207;DHT22;16247;50.840;4.382;2023-03-09T04:31:39;6.20;99.90
29207;DHT22;16247;50.840;4.382;2023-03-09T04:34:28;6.00;99.90
29207;DHT22;16247;50.840;4.382;2023-03-09T04:37:17;6.10;99.90
29207;DHT22;16247;50.840;4.382;2023-03-09T04:47:47;6.10;99.90
29207;DHT22;16247;50.840;4.382;2023-03-09T05:13:53;6.00;99.90
29207;DHT22;16247;50.840;4.382;2023-03-09T05:16:49;6.00;99.90
29207;DHT22;16247;50.840;4.382;2023-03-09T05:20:41;5.90;99.90
29207;DHT22;16247;50.840;4.382;2023-03-09T05:23:29;5.70;99.90
29207;DHT22;16247;50.840;4.382;2023-03-09T05:26:16;5.80;99.90
29207;DHT22;16247;50.840;4.382;2023-03-09T05:29:24;5.80;99.90
29207;DHT22;16247;50.840;4.382;2023-03-09T05:32:19;5.90;99.90
29207;DHT22;16247;50.840;4.382;2023-03-09T05:35:12;5.80;99.90
29207;DHT22;16247;50.840;4.382;2023-03-09T05:38:28;5.60;99.90
29207;DHT22;16247;50.840;4.382;2023-03-09T05:40:57;6.00;99.90
29207;DHT22;16247;50.840;4.382;2023-03-09T05:43:22;5.90;99.90
29207;DHT22;16247;50.840;4.382;2023-03-09T05:45:55;6.00;99.90
29207;DHT22;16247;50.840;4.382;2023-03-09T05:48:24;5.90;99.90
29207;DHT22;16247;50.840;4.382;2023-03-09T05:54:17;5.80;99.90
29207;DHT22;16247;50.840;4.382;2023-03-09T05:57:15;5.90;99.90
29207;DHT22;16247;50.840;4.382;2023-03-09T06:00:16;5.90;99.90
29207;DHT22;16247;50.840;4.382;2023-03-09T06:03:04;6.10;99.90
29207;DHT22;16247;50.840;4.382;2023-03-09T06:05:37;6.00;99.90
29207;DHT22;16247;50.840;4.382;2023-03-09T06:08:03;5.90;99.90
29207;DHT22;16247;50.840;4.382;2023-03-09T06:10:36;6.10;99.90
29207;DHT22;16247;50.840;4.382;2023-03-09T06:13:03;6.00;99.90
29207;DHT22;16247;50.840;4.382;2023-03-09T06:15:29;6.10;99.90
29207;DHT22;16247;50.840;4.382;2023-03-09T06:17:54;6.10;99.90
29207;DHT22;16247;50.840;4.382;2023-03-09T06:31:26;5.80;99.90
29207;DHT22;16247;50.840;4.382;2023-03-09T06:33:52;5.90;99.90
29207;DHT22;16247;50.840;4.382;2023-03-09T06:36:18;5.90;99.90
29207;DHT22;16247;50.840;4.382;2023-03-09T06:38:47;5.90;99.90
29207;DHT22;16247;50.840;4.382;2023-03-09T06:41:18;5.90;99.90
29207;DHT22;16247;50.840;4.382;2023-03-09T06:44:09;5.70;99.90
29207;DHT22;16247;50.840;4.382;2023-03-09T06:46:35;5.90;99.90
29207;DHT22;16247;50.840;4.382;2023-03-09T06:49:01;5.70;99.90
29207;DHT22;16247;50.840;4.382;2023-03-09T06:51:27;5.60;99.90
29207;DHT22;16247;50.840;4.382;2023-03-09T06:54:01;5.80;99.90
29207;DHT22;16247;50.840;4.382;2023-03-09T06:56:29;5.50;99.90
29207;DHT22;16247;50.840;4.382;2023-03-09T06:58:55;5.40;99.90
29207;DHT22;16247;50.840;4.382;2023-03-09T07:01:22;5.60;99.90
29207;DHT22;16247;50.840;4.382;2023-03-09T07:03:49;5.40;99.90
29207;DHT22;16247;50.840;4.382;2023-03-09T07:06:15;5.60;99.90
29207;DHT22;16247;50.840;4.382;2023-03-09T07:08:41;5.70;99.90
29207;DHT22;16247;50.840;4.382;2023-03-09T07:11:07;5.90;99.90
29207;DHT22;16247;50.840;4.382;2023-03-09T07:13:33;6.20;99.90
29207;DHT22;16247;50.840;4.382;2023-03-09T07:16:02;6.00;99.90
29207;DHT22;16247;50.840;4.382;2023-03-09T07:18:29;5.90;99.90
29207;DHT22;16247;50.840;4.382;2023-03-09T07:21:00;5.90;99.90
29207;DHT22;16247;50.840;4.382;2023-03-09T07:23:27;5.90;99.90
29207;DHT22;16247;50.840;4.382;2023-03-09T07:25:57;5.80;99.90
29207;DHT22;16247;50.840;4.382;2023-03-09T07:28:23;6.00;99.90
29207;DHT22;16247;50.840;4.382;2023-03-09T07:30:49;6.10;99.90
29207;DHT22;16247;50.840;4.382;2023-03-09T07:33:16;6.20;99.90
29207;DHT22;16247;50.840;4.382;2023-03-09T07:35:41;6.00;99.90
29207;DHT22;16247;50.840;4.382;2023-03-09T07:38:07;5.90;99.90
29207;DHT22;16247;50.840;4.382;2023-03-09T07:40:36;6.00;99.90
29207;DHT22;16247;50.840;4.382;2023-03-09T07:43:02;6.20;99.90
29207;DHT22;16247;50.840;4.382;2023-03-09T07:45:27;6.20;99.90
29207;DHT22;16247;50.840;4.382;2023-03-09T07:47:54;6.10;99.90
29207;DHT22;16247;50.840;4.382;2023-03-09T07:50:19;6.30;99.90
29207;DHT22;16247;50.840;4.382;2023-03-09T07:52:45;6.30;99.90
29207;DHT22;16247;50.840;4.382;2023-03-09T07:55:13;6.40;99.90
29207;DHT22;16247;50.840;4.382;2023-03-09T07:57:39;6.10;99.90
29207;DHT22;16247;50.840;4.382;2023-03-09T08:00:15;6.30;99.90
29207;DHT22;16247;50.840;4.382;2023-03-09T08:06:08;6.60;99.90
29207;DHT22;16247;50.840;4.382;2023-03-09T08:08:35;7.10;99.90
29207;DHT22;16247;50.840;4.382;2023-03-09T08:11:02;6.90;99.90
29207;DHT22;16247;50.840;4.382;2023-03-09T08:13:30;7.00;99.90
29207;DHT22;16247;50.840;4.382;2023-03-09T08:16:01;7.00;99.90
29207;DHT22;16247;50.840;4.382;2023-03-09T08:18:28;6.90;99.90
29207;DHT22;16247;50.840;4.382;2023-03-09T08:21:02;7.00;99.90
29207;DHT22;16247;50.840;4.382;2023-03-09T08:26:50;6.80;99.90
29207;DHT22;16247;50.840;4.382;2023-03-09T08:29:16;6.90;99.90
29207;DHT22;16247;50.840;4.382;2023-03-09T08:31:41;6.90;99.90
29207;DHT22;16247;50.840;4.382;2023-03-09T08:34:11;7.20;99.90
29207;DHT22;16247;50.840;4.382;2023-03-09T08:36:37;7.30;99.90
29207;DHT22;16247;50.840;4.382;2023-03-09T08:39:02;7.40;99.90
29207;DHT22;16247;50.840;4.382;2023-03-09T08:41:28;7.10;99.90
29207;DHT22;16247;50.840;4.382;2023-03-09T08:43:53;7.30;99.90
29207;DHT22;16247;50.840;4.382;2023-03-09T08:46:21;7.20;99.90
29207;DHT22;16247;50.840;4.382;2023-03-09T08:48:47;7.20;99.90
29207;DHT22;16247;50.840;4.382;2023-03-09T08:51:14;7.30;99.90
29207;DHT22;16247;50.840;4.382;2023-03-09T08:53:39;7.30;99.90
29207;DHT22;16247;50.840;4.382;2023-03-09T08:56:10;7.20;99.90
29207;DHT22;16247;50.840;4.382;2023-03-09T08:58:37;7.00;99.90
29207;DHT22;16247;50.840;4.382;2023-03-09T09:01:05;7.30;99.90
29207;DHT22;16247;50.840;4.382;2023-03-09T09:03:32;7.30;99.90
29207;DHT22;16247;50.840;4.382;2023-03-09T09:06:07;7.40;99.90
29207;DHT22;16247;50.840;4.382;2023-03-09T09:08:33;7.30;99.90
29207;DHT22;16247;50.840;4.382;2023-03-09T09:11:06;7.40;99.90
29207;DHT22;16247;50.840;4.382;2023-03-09T09:13:32;7.40;99.90
29207;DHT22;16247;50.840;4.382;2023-03-09T09:15:58;7.70;99.90
29207;DHT22;16247;50.840;4.382;2023-03-09T09:18:25;7.70;99.90
29207;DHT22;16247;50.840;4.382;2023-03-09T09:20:51;7.70;99.90
29207;DHT22;16247;50.840;4.382;2023-03-09T09:23:18;7.70;99.90
29207;DHT22;16247;50.840;4.382;2023-03-09T09:25:44;7.70;99.90
29207;DHT22;16247;50.840;4.382;2023-03-09T09:28:11;7.80;99.90
29207;DHT22;16247;50.840;4.382;2023-03-09T09:30:37;7.90;99.90
29207;DHT22;16247;50.840;4.382;2023-03-09T09:33:03;7.90;99.90
29207;DHT22;16247;50.840;4.382;2023-03-09T09:35:31;7.80;99.90
29207;DHT22;16247;50.840;4.382;2023-03-09T09:37:58;8.20;99.90
29207;DHT22;16247;50.840;4.382;2023-03-09T09:40:25;8.30;99.90
29207;DHT22;16247;50.840;4.382;2023-03-09T09:42:53;8.20;99.90
29207;DHT22;16247;50.840;4.382;2023-03-09T09:45:44;8.30;99.90
29207;DHT22;16247;50.840;4.382;2023-03-09T09:48:12;8.20;99.90
29207;DHT22;16247;50.840;4.382;2023-03-09T09:51:27;8.10;99.90
29207;DHT22;16247;50.840;4.382;2023-03-09T09:57:01;8.30;99.90
29207;DHT22;16247;50.840;4.382;2023-03-09T09:59:33;8.60;99.90
29207;DHT22;16247;50.840;4.382;2023-03-09T10:04:42;8.50;99.90
29207;DHT22;16247;50.840;4.382;2023-03-09T10:07:15;8.80;99.90
29207;DHT22;16247;50.840;4.382;2023-03-09T10:09:43;8.80;99.90
29207;DHT22;16247;50.840;4.382;2023-03-09T10:12:14;8.80;99.90
29207;DHT22;16247;50.840;4.382;2023-03-09T10:14:57;8.70;99.90
29207;DHT22;16247;50.840;4.382;2023-03-09T10:17:35;8.70;99.90
29207;DHT22;16247;50.840;4.382;2023-03-09T10:20:19;8.70;99.90
29207;DHT22;16247;50.840;4.382;2023-03-09T10:22:49;8.70;99.90
29207;DHT22;16247;50.840;4.382;2023-03-09T10:25:19;8.80;99.90
29207;DHT22;16247;50.840;4.382;2023-03-09T10:27:51;8.90;99.90
29207;DHT22;16247;50.840;4.382;2023-03-09T10:32:54;8.90;99.90
29207;DHT22;16247;50.840;4.382;2023-03-09T10:37:57;8.90;99.90
29207;DHT22;16247;50.840;4.382;2023-03-09T10:40:36;9.10;99.90
29207;DHT22;16247;50.840;4.382;2023-03-09T10:45:48;9.20;99.90
29207;DHT22;16247;50.840;4.382;2023-03-09T10:48:24;9.30;99.90
29207;DHT22;16247;50.840;4.382;2023-03-09T10:50:59;9.50;99.90
29207;DHT22;16247;50.840;4.382;2023-03-09T10:56:23;9.70;99.90
29207;DHT22;16247;50.840;4.382;2023-03-09T11:01:34;10.00;99.90
29207;DHT22;16247;50.840;4.382;2023-03-09T11:06:54;10.40;99.90
29207;DHT22;16247;50.840;4.382;2023-03-09T11:09:36;10.50;99.90
29207;DHT22;16247;50.840;4.382;2023-03-09T11:14:57;10.70;99.90
29207;DHT22;16247;50.840;4.382;2023-03-09T11:17:43;10.60;99.90
29207;DHT22;16247;50.840;4.382;2023-03-09T11:20:41;10.70;99.90
29207;DHT22;16247;50.840;4.382;2023-03-09T11:23:27;10.70;99.90
29207;DHT22;16247;50.840;4.382;2023-03-09T11:26:12;11.00;99.90
29207;DHT22;16247;50.840;4.382;2023-03-09T11:28:59;11.00;99.90
29207;DHT22;16247;50.840;4.382;2023-03-09T11:31:45;11.20;99.90
29207;DHT22;16247;50.840;4.382;2023-03-09T11:34:34;11.20;99.90
29207;DHT22;16247;50.840;4.382;2023-03-09T11:40:05;11.00;99.90
29207;DHT22;16247;50.840;4.382;2023-03-09T11:42:49;11.00;99.90
29207;DHT22;16247;50.840;4.382;2023-03-09T11:45:22;10.80;99.90
29207;DHT22;16247;50.840;4.382;2023-03-09T11:47:51;11.10;99.90
29207;DHT22;16247;50.840;4.382;2023-03-09T11:53:14;11.40;99.90
29207;DHT22;16247;50.840;4.382;2023-03-09T11:55:45;11.40;99.90
29207;DHT22;16247;50.840;4.382;2023-03-09T11:58:22;11.40;99.90
29207;DHT22;16247;50.840;4.382;2023-03-09T12:00:55;11.40;99.90
29207;DHT22;16247;50.840;4.382;2023-03-09T12:03:23;11.60;99.90
29207;DHT22;16247;50.840;4.382;2023-03-09T12:05:54;11.50;99.90
29207;DHT22;16247;50.840;4.382;2023-03-09T12:10:55;11.60;99.90
29207;DHT22;16247;50.840;4.382;2023-03-09T12:13:45;11.60;99.90
29207;DHT22;16247;50.840;4.382;2023-03-09T12:16:25;11.80;99.90
29207;DHT22;16247;50.840;4.382;2023-03-09T12:21:43;12.00;99.90
29207;DHT22;16247;50.840;4.382;2023-03-09T12:29:46;12.20;99.90
29207;DHT22;16247;50.840;4.382;2023-03-09T12:34:52;12.20;99.90
29207;DHT22;16247;50.840;4.382;2023-03-09T12:40:20;12.60;99.90
29207;DHT22;16247;50.840;4.382;2023-03-09T12:42:53;12.60;99.90
29207;DHT22;16247;50.840;4.382;2023-03-09T12:45:24;12.80;99.90
29207;DHT22;16247;50.840;4.382;2023-03-09T12:56:01;13.10;99.90
29207;DHT22;16247;50.840;4.382;2023-03-09T13:04:23;13.10;99.90
29207;DHT22;16247;50.840;4.382;2023-03-09T13:07:02;13.30;99.90
29207;DHT22;16247;50.840;4.382;2023-03-09T13:09:40;13.40;99.90
29207;DHT22;16247;50.840;4.382;2023-03-09T13:12:35;13.60;99.90
29207;DHT22;16247;50.840;4.382;2023-03-09T13:15:23;13.50;99.90
29207;DHT22;16247;50.840;4.382;2023-03-09T13:18:21;13.70;99.90
29207;DHT22;16247;50.840;4.382;2023-03-09T13:20:47;13.70;99.90
29207;DHT22;16247;50.840;4.382;2023-03-09T13:23:17;13.80;99.90
29207;DHT22;16247;50.840;4.382;2023-03-09T13:25:51;14.00;99.90
29207;DHT22;16247;50.840;4.382;2023-03-09T13:28:28;13.70;99.90
29207;DHT22;16247;50.840;4.382;2023-03-09T13:30:59;14.00;99.90
29207;DHT22;16247;50.840;4.382;2023-03-09T13:33:35;14.00;99.90
29207;DHT22;16247;50.840;4.382;2023-03-09T13:36:17;13.90;99.90
29207;DHT22;16247;50.840;4.382;2023-03-09T13:38:48;13.90;99.90
29207;DHT22;16247;50.840;4.382;2023-03-09T13:41:19;14.00;99.90
29207;DHT22;16247;50.840;4.382;2023-03-09T13:43:52;13.90;99.90
29207;DHT22;16247;50.840;4.382;2023-03-09T13:46:30;14.00;99.90
29207;DHT22;16247;50.840;4.382;2023-03-09T13:49:00;14.10;99.90
29207;DHT22;16247;50.840;4.382;2023-03-09T13:59:54;14.20;99.90
29207;DHT22;16247;50.840;4.382;2023-03-09T14:02:21;14.00;99.90
29207;DHT22;16247;50.840;4.382;2023-03-09T14:07:31;13.80;99.90
29207;DHT22;16247;50.840;4.382;2023-03-09T14:10:00;13.90;99.90
29207;DHT22;16247;50.840;4.382;2023-03-09T14:12:37;13.80;99.90
29207;DHT22;16247;50.840;4.382;2023-03-09T14:15:14;13.80;99.90
29207;DHT22;16247;50.840;4.382;2023-03-09T14:17:41;13.70;99.90
29207;DHT22;16247;50.840;4.382;2023-03-09T14:20:25;13.70;99.90
29207;DHT22;16247;50.840;4.382;2023-03-09T14:23:45;13.60;99.90
29207;DHT22;16247;50.840;4.382;2023-03-09T14:26:08;13.60;99.90
29207;DHT22;16247;50.840;4.382;2023-03-09T14:28:58;13.60;99.90
29207;DHT22;16247;50.840;4.382;2023-03-09T14:31:34;13.40;99.90
29207;DHT22;16247;50.840;4.382;2023-03-09T14:39:30;13.50;99.90
29207;DHT22;16247;50.840;4.382;2023-03-09T14:45:03;13.70;99.90
29207;DHT22;16247;50.840;4.382;2023-03-09T14:47:36;13.70;99.90
29207;DHT22;16247;50.840;4.382;2023-03-09T14:50:05;13.70;99.90
29207;DHT22;16247;50.840;4.382;2023-03-09T14:52:53;13.80;99.90
29207;DHT22;16247;50.840;4.382;2023-03-09T14:55:22;13.90;99.90
29207;DHT22;16247;50.840;4.382;2023-03-09T14:57:48;14.10;99.90
29207;DHT22;16247;50.840;4.382;2023-03-09T15:00:22;14.00;99.90
29207;DHT22;16247;50.840;4.382;2023-03-09T15:02:52;14.00;99.90
29207;DHT22;16247;50.840;4.382;2023-03-09T15:05:21;14.00;99.90
29207;DHT22;16247;50.840;4.382;2023-03-09T15:07:48;14.20;99.90
29207;DHT22;16247;50.840;4.382;2023-03-09T15:10:15;14.10;99.90
29207;DHT22;16247;50.840;4.382;2023-03-09T15:12:44;14.10;99.90
29207;DHT22;16247;50.840;4.382;2023-03-09T15:15:21;14.10;99.90
29207;DHT22;16247;50.840;4.382;2023-03-09T15:17:50;14.10;99.90
29207;DHT22;16247;50.840;4.382;2023-03-09T15:20:19;14.30;99.90
29207;DHT22;16247;50.840;4.382;2023-03-09T15:22:46;14.30;99.90
29207;DHT22;16247;50.840;4.382;2023-03-09T15:25:15;14.20;99.90
29207;DHT22;16247;50.840;4.382;2023-03-09T15:27:52;14.20;99.90
29207;DHT22;16247;50.840;4.382;2023-03-09T15:30:18;14.20;99.90
29207;DHT22;16247;50.840;4.382;2023-03-09T15:32:55;14.20;99.90
29207;DHT22;16247;50.840;4.382;2023-03-09T15:35:21;14.40;99.90
29207;DHT22;16247;50.840;4.382;2023-03-09T15:37:47;14.50;99.90
29207;DHT22;16247;50.840;4.382;2023-03-09T15:40:18;14.50;99.90
29207;DHT22;16247;50.840;4.382;2023-03-09T15:42:48;14.40;99.90
29207;DHT22;16247;50.840;4.382;2023-03-09T15:45:15;14.50;99.90
29207;DHT22;16247;50.840;4.382;2023-03-09T15:47:41;14.60;99.90
29207;DHT22;16247;50.840;4.382;2023-03-09T15:50:08;14.40;99.90
29207;DHT22;16247;50.840;4.382;2023-03-09T15:52:38;14.30;99.90
29207;DHT22;16247;50.840;4.382;2023-03-09T15:55:07;14.40;99.90
29207;DHT22;16247;50.840;4.382;2023-03-09T15:57:33;14.20;99.90
29207;DHT22;16247;50.840;4.382;2023-03-09T15:59:58;14.00;99.90
29207;DHT22;16247;50.840;4.382;2023-03-09T16:02:25;14.50;99.90
29207;DHT22;16247;50.840;4.382;2023-03-09T16:04:51;14.40;99.90
29207;DHT22;16247;50.840;4.382;2023-03-09T16:07:17;14.30;99.90
29207;DHT22;16247;50.840;4.382;2023-03-09T16:09:44;14.10;99.90
29207;DHT22;16247;50.840;4.382;2023-03-09T16:12:10;14.00;99.90
29207;DHT22;16247;50.840;4.382;2023-03-09T16:14:40;13.90;99.90
29207;DHT22;16247;50.840;4.382;2023-03-09T16:20:30;14.00;99.90
29207;DHT22;16247;50.840;4.382;2023-03-09T16:22:56;14.10;99.90
29207;DHT22;16247;50.840;4.382;2023-03-09T16:25:25;13.80;99.90
29207;DHT22;16247;50.840;4.382;2023-03-09T16:28:10;13.80;99.90
29207;DHT22;16247;50.840;4.382;2023-03-09T16:30:39;14.00;99.90
29207;DHT22;16247;50.840;4.382;2023-03-09T16:33:08;13.90;99.90
29207;DHT22;16247;50.840;4.382;2023-03-09T16:35:36;13.70;99.90
29207;DHT22;16247;50.840;4.382;2023-03-09T16:38:03;13.70;99.90
29207;DHT22;16247;50.840;4.382;2023-03-09T16:40:29;13.60;99.90
29207;DHT22;16247;50.840;4.382;2023-03-09T16:42:56;13.60;99.90
29207;DHT22;16247;50.840;4.382;2023-03-09T16:45:22;13.60;99.90
29207;DHT22;16247;50.840;4.382;2023-03-09T16:48:02;13.60;99.90
29207;DHT22;16247;50.840;4.382;2023-03-09T16:50:34;13.50;99.90
29207;DHT22;16247;50.840;4.382;2023-03-09T16:53:02;13.50;99.90
29207;DHT22;16247;50.840;4.382;2023-03-09T16:55:28;13.60;99.90
29207;DHT22;16247;50.840;4.382;2023-03-09T16:57:54;13.50;99.90
29207;DHT22;16247;50.840;4.382;2023-03-09T17:00:20;13.70;99.90
29207;DHT22;16247;50.840;4.382;2023-03-09T17:02:47;13.60;99.90
29207;DHT22;16247;50.840;4.382;2023-03-09T17:05:14;13.60;99.90
29207;DHT22;16247;50.840;4.382;2023-03-09T17:07:41;13.50;99.90
29207;DHT22;16247;50.840;4.382;2023-03-09T17:10:18;13.50;99.90
29207;DHT22;16247;50.840;4.382;2023-03-09T17:12:45;13.40;99.90
29207;DHT22;16247;50.840;4.382;2023-03-09T17:15:12;13.50;99.90
29207;DHT22;16247;50.840;4.382;2023-03-09T17:17:37;13.40;99.90
29207;DHT22;16247;50.840;4.382;2023-03-09T17:20:10;13.30;99.90
29207;DHT22;16247;50.840;4.382;2023-03-09T17:22:37;13.30;99.90
29207;DHT22;16247;50.840;4.382;2023-03-09T17:25:05;13.10;99.90
29207;DHT22;16247;50.840;4.382;2023-03-09T17:27:33;12.90;99.90
29207;DHT22;16247;50.840;4.382;2023-03-09T17:29:59;13.00;99.90
29207;DHT22;16247;50.840;4.382;2023-03-09T17:32:24;12.90;99.90
29207;DHT22;16247;50.840;4.382;2023-03-09T17:34:50;13.00;99.90
29207;DHT22;16247;50.840;4.382;2023-03-09T17:37:17;12.80;99.90
29207;DHT22;16247;50.840;4.382;2023-03-09T17:39:43;13.10;99.90
29207;DHT22;16247;50.840;4.382;2023-03-09T17:42:09;13.00;99.90
29207;DHT22;16247;50.840;4.382;2023-03-09T17:44:35;12.90;99.90
29207;DHT22;16247;50.840;4.382;2023-03-09T17:47:03;12.80;99.90
29207;DHT22;16247;50.840;4.382;2023-03-09T17:49:30;12.70;99.90
29207;DHT22;16247;50.840;4.382;2023-03-09T17:51:57;12.70;99.90
29207;DHT22;16247;50.840;4.382;2023-03-09T17:54:26;12.70;99.90
29207;DHT22;16247;50.840;4.382;2023-03-09T17:56:53;12.60;99.90
29207;DHT22;16247;50.840;4.382;2023-03-09T17:59:19;12.50;99.90
29207;DHT22;16247;50.840;4.382;2023-03-09T18:01:45;12.60;99.90
29207;DHT22;16247;50.840;4.382;2023-03-09T18:04:11;12.60;99.90
29207;DHT22;16247;50.840;4.382;2023-03-09T18:06:37;12.40;99.90
29207;DHT22;16247;50.840;4.382;2023-03-09T18:09:02;12.30;99.90
29207;DHT22;16247;50.840;4.382;2023-03-09T18:11:31;12.40;99.90
29207;DHT22;16247;50.840;4.382;2023-03-09T18:13:59;12.60;99.90
29207;DHT22;16247;50.840;4.382;2023-03-09T18:16:25;12.60;99.90
29207;DHT22;16247;50.840;4.382;2023-03-09T18:18:52;12.70;99.90
29207;DHT22;16247;50.840;4.382;2023-03-09T18:21:20;12.60;99.90
29207;DHT22;16247;50.840;4.382;2023-03-09T18:23:48;12.70;99.90
29207;DHT22;16247;50.840;4.382;2023-03-09T18:26:17;12.60;99.90
29207;DHT22;16247;50.840;4.382;2023-03-09T18:28:44;12.30;99.90
29207;DHT22;16247;50.840;4.382;2023-03-09T18:31:10;12.30;99.90
29207;DHT22;16247;50.840;4.382;2023-03-09T18:33:37;12.70;99.90
29207;DHT22;16247;50.840;4.382;2023-03-09T18:36:05;12.50;99.90
29207;DHT22;16247;50.840;4.382;2023-03-09T18:38:31;12.50;99.90
29207;DHT22;16247;50.840;4.382;2023-03-09T18:40:57;12.40;99.90
29207;DHT22;16247;50.840;4.382;2023-03-09T18:43:23;12.50;99.90
29207;DHT22;16247;50.840;4.382;2023-03-09T18:45:48;12.40;99.90
29207;DHT22;16247;50.840;4.382;2023-03-09T18:48:15;12.50;99.90
29207;DHT22;16247;50.840;4.382;2023-03-09T18:50:42;12.50;99.90
29207;DHT22;16247;50.840;4.382;2023-03-09T18:53:09;12.60;99.90
29207;DHT22;16247;50.840;4.382;2023-03-09T18:55:36;12.70;99.90
29207;DHT22;16247;50.840;4.382;2023-03-09T18:58:02;12.70;99.90
29207;DHT22;16247;50.840;4.382;2023-03-09T19:00:27;12.80;99.90
29207;DHT22;16247;50.840;4.382;2023-03-09T19:02:56;12.60;99.90
29207;DHT22;16247;50.840;4.382;2023-03-09T19:05:25;12.60;99.90
29207;DHT22;16247;50.840;4.382;2023-03-09T19:07:51;12.70;99.90
29207;DHT22;16247;50.840;4.382;2023-03-09T19:10:16;12.50;99.90
29207;DHT22;16247;50.840;4.382;2023-03-09T19:12:42;12.50;99.90
29207;DHT22;16247;50.840;4.382;2023-03-09T19:15:09;12.40;99.90
29207;DHT22;16247;50.840;4.382;2023-03-09T19:17:36;12.40;99.90
29207;DHT22;16247;50.840;4.382;2023-03-09T19:20:02;12.70;99.90
29207;DHT22;16247;50.840;4.382;2023-03-09T19:22:29;12.60;99.90
29207;DHT22;16247;50.840;4.382;2023-03-09T19:24:58;12.60;99.90
29207;DHT22;16247;50.840;4.382;2023-03-09T19:27:24;12.80;99.90
29207;DHT22;16247;50.840;4.382;2023-03-09T19:29:53;12.80;99.90
29207;DHT22;16247;50.840;4.382;2023-03-09T19:32:42;12.70;99.90
29207;DHT22;16247;50.840;4.382;2023-03-09T19:35:13;12.80;99.90
29207;DHT22;16247;50.840;4.382;2023-03-09T19:37:40;12.80;99.90
29207;DHT22;16247;50.840;4.382;2023-03-09T19:40:06;12.90;99.90
29207;DHT22;16247;50.840;4.382;2023-03-09T19:42:32;12.90;99.90
29207;DHT22;16247;50.840;4.382;2023-03-09T19:45:02;12.80;99.90
29207;DHT22;16247;50.840;4.382;2023-03-09T19:47:29;12.90;99.90
29207;DHT22;16247;50.840;4.382;2023-03-09T19:49:57;13.10;99.90
29207;DHT22;16247;50.840;4.382;2023-03-09T19:52:24;12.80;99.90
29207;DHT22;16247;50.840;4.382;2023-03-09T19:54:49;12.70;99.90
29207;DHT22;16247;50.840;4.382;2023-03-09T19:57:15;12.80;99.90